Middle Wallop, United Kingdom
Current Conditions -  °F | °C
As of 7:50 AM on Friday 31 Oct 2014 (Local Time) from EGVP Reporting Station
Haze Haze  
Wind Chill: 14°   Ceiling: 30000
Heat Index: 14°   Visibility: 2.1mi
Dew Point: 13°   Wind: 6mph
Humidity: 94%   Direction: 160°SSE
Pressure: 30.03"   Gusts: NA
Location:  51.15°N, 1.57°W
Report Text: EGVP 310750Z 16005KT 3500 BR FEW100 SCT180 BKN300 14/13 Q1017 YLO1 BECMG 6000 BR WHT
Loading
Personal Weather Stations






























Interactive Weather Map
Tropical Storm Tracking
New forecast layout! Learn more

10-Day Weather Forecast

Advertisements
Track Severe Weather on mobile